Time;durP1;ratioP1;P1;durP2;ratioP2;P2;SDS_P1;SDS_P2;PMS_P1;PMS_P2;Temp;Humidity;BMP_temperature;BMP_pressure;BME280_temperature;BME280_humidity;BME280_pressure;Samples;Min_cycle;Max_cycle;Signal;HPM_P1;HPM_P2
2023/02/26 00:01:36;;;;;;;2.40;1.20;;;;;;;0.51;70.26;101129.38;5059190;28;20215;-81
2023/02/26 00:04:06;;;;;;;2.63;0.90;;;;;;;0.27;70.65;101132.88;5057408;28;20669;-82
2023/02/26 00:06:37;;;;;;;1.63;1.20;;;;;;;0.38;70.84;101123.84;5046881;28;20684;-82
2023/02/26 00:09:04;;;;;;;2.10;1.10;;;;;;;0.37;70.56;101122.09;5054812;28;20221;-82
2023/02/26 00:11:31;;;;;;;1.23;0.83;;;;;;;0.42;70.75;101121.38;5048022;28;20206;-83
2023/02/26 00:13:58;;;;;;;1.63;0.90;;;;;;;0.23;70.70;101130.16;5055461;28;20676;-81
2023/02/26 00:16:27;;;;;;;2.53;1.13;;;;;;;0.26;70.65;101128.59;5059432;28;20331;-80
2023/02/26 00:18:54;;;;;;;2.70;1.27;;;;;;;0.36;71.38;101128.06;5055201;28;20221;-82
2023/02/26 00:21:22;;;;;;;3.07;1.10;;;;;;;0.38;70.82;101123.00;5057861;28;20198;-83
2023/02/26 00:23:51;;;;;;;2.13;1.43;;;;;;;0.27;71.35;101120.03;5056164;28;20607;-83
2023/02/26 00:26:17;;;;;;;2.20;1.57;;;;;;;0.34;71.55;101116.88;5054893;28;20663;-83
2023/02/26 00:28:45;;;;;;;4.20;1.70;;;;;;;0.14;72.03;101112.72;5053558;28;20279;-82
2023/02/26 00:31:14;;;;;;;3.10;1.40;;;;;;;0.09;72.92;101104.88;5056448;28;20329;-82
2023/02/26 00:33:41;;;;;;;2.30;1.30;;;;;;;0.18;72.57;101096.66;5056949;28;20215;-82
2023/02/26 00:36:18;;;;;;;1.63;1.40;;;;;;;0.29;73.09;101089.28;5044941;28;20225;-81
2023/02/26 00:38:54;;;;;;;1.40;1.17;;;;;;;0.13;73.14;101096.47;5046756;28;20224;-82
2023/02/26 00:41:22;;;;;;;2.17;1.60;;;;;;;0.17;73.28;101085.47;5047976;28;20236;-82
2023/02/26 00:43:49;;;;;;;5.00;2.70;;;;;;;0.17;73.93;101074.34;5053945;28;20792;-81
2023/02/26 00:46:26;;;;;;;3.40;2.10;;;;;;;0.33;74.10;101055.19;5046920;28;20198;-81
2023/02/26 00:48:57;;;;;;;1.83;1.57;;;;;;;0.37;73.93;101059.59;5047573;28;20218;-83
2023/02/26 00:51:30;;;;;;;3.60;1.60;;;;;;;0.46;73.25;101056.47;5053386;28;20197;-82
2023/02/26 00:54:03;;;;;;;2.87;1.37;;;;;;;0.42;73.67;101055.50;5056726;28;20699;-82
2023/02/26 00:56:31;;;;;;;2.10;1.00;;;;;;;0.54;73.56;101061.03;5055255;28;20263;-81
2023/02/26 00:58:57;;;;;;;1.73;1.30;;;;;;;0.50;73.48;101063.44;5052378;28;20225;-80
2023/02/26 01:01:24;;;;;;;2.87;1.20;;;;;;;0.53;72.70;101064.41;5045371;28;20199;-80
2023/02/26 01:03:50;;;;;;;1.30;1.20;;;;;;;0.44;73.32;101082.09;5053266;28;20255;-81
2023/02/26 01:06:20;;;;;;;3.13;1.20;;;;;;;0.35;73.79;101090.34;5055257;28;20207;-82
2023/02/26 01:08:54;;;;;;;2.70;1.03;;;;;;;0.37;74.74;101077.56;5055890;28;20724;-81
2023/02/26 01:11:21;;;;;;;2.17;1.20;;;;;;;0.43;73.52;101064.94;5056559;28;20577;-82
2023/02/26 01:13:49;;;;;;;3.73;1.57;;;;;;;0.49;74.03;101062.56;5055041;28;20613;-82
2023/02/26 01:16:24;;;;;;;1.70;1.57;;;;;;;0.44;73.33;101076.97;5056069;28;20205;-80
2023/02/26 01:18:58;;;;;;;3.97;1.00;;;;;;;0.48;73.88;101078.81;5055814;28;20221;-81
2023/02/26 01:21:30;;;;;;;1.70;1.17;;;;;;;0.43;74.67;101079.47;5055685;28;20258;-82
2023/02/26 01:23:58;;;;;;;1.30;1.17;;;;;;;0.40;74.71;101064.84;5055408;28;20825;-82
2023/02/26 01:26:28;;;;;;;3.50;1.17;;;;;;;0.41;74.76;101051.16;5054998;28;20267;-79
2023/02/26 01:28:56;;;;;;;5.37;1.60;;;;;;;0.41;74.73;101045.16;5055330;28;20261;-81
2023/02/26 01:31:34;;;;;;;2.70;1.10;;;;;;;0.40;74.99;101036.59;5055022;28;20279;-81
2023/02/26 01:34:06;;;;;;;2.50;1.50;;;;;;;0.38;75.34;101044.25;5055232;28;20254;-81
2023/02/26 01:36:40;;;;;;;4.47;1.30;;;;;;;0.35;75.09;101031.28;5056079;28;20208;-81
2023/02/26 01:39:16;;;;;;;3.00;1.10;;;;;;;0.38;75.58;101030.53;5055051;28;20229;-81
2023/02/26 01:41:47;;;;;;;2.33;1.07;;;;;;;0.36;75.68;101037.31;5055572;28;20282;-80
2023/02/26 01:44:23;;;;;;;1.27;1.00;;;;;;;0.42;76.05;101029.81;5054983;28;20560;-80
2023/02/26 01:47:14;;;;;;;4.50;1.47;;;;;;;0.38;75.69;101026.28;5055089;28;20209;-80
2023/02/26 01:49:41;;;;;;;2.77;1.37;;;;;;;0.42;76.20;101018.66;5054826;28;20221;-81
2023/02/26 01:52:56;;;;;;;2.40;1.23;;;;;;;0.42;76.18;101021.22;5055481;28;20207;-80
2023/02/26 01:55:26;;;;;;;1.63;1.10;;;;;;;0.33;76.95;101022.66;5019503;28;20213;-82
2023/02/26 01:57:55;;;;;;;2.67;1.37;;;;;;;0.35;76.69;101026.16;5054856;28;20714;-81
2023/02/26 02:00:23;;;;;;;2.43;1.10;;;;;;;0.34;76.14;101015.88;5055694;28;20286;-79
2023/02/26 02:02:50;;;;;;;2.23;1.00;;;;;;;0.32;76.33;101023.50;5055810;28;20231;-81
2023/02/26 02:05:21;;;;;;;3.17;1.20;;;;;;;0.33;76.42;101030.38;5055420;28;20695;-81
2023/02/26 02:07:48;;;;;;;1.20;0.73;;;;;;;0.26;77.06;101025.88;5055789;28;20742;-81
2023/02/26 02:10:14;;;;;;;2.80;0.97;;;;;;;0.21;77.18;101019.72;5055838;28;20606;-82
2023/02/26 02:12:50;;;;;;;1.60;1.00;;;;;;;0.20;77.63;101012.84;5055287;28;20226;-80
2023/02/26 02:15:25;;;;;;;2.10;1.00;;;;;;;0.18;77.55;101010.22;5055282;28;20205;-81
2023/02/26 02:18:00;;;;;;;3.37;1.17;;;;;;;0.16;78.36;100998.19;5055038;28;20205;-81
2023/02/26 02:20:49;;;;;;;1.10;0.70;;;;;;;0.11;78.95;100989.44;5055535;28;20226;-80
2023/02/26 02:23:19;;;;;;;3.10;1.13;;;;;;;0.14;78.80;100971.56;5055530;28;20631;-81
2023/02/26 02:26:09;;;;;;;3.13;1.00;;;;;;;0.17;78.61;100966.53;5055561;28;20201;-79
2023/02/26 02:28:46;;;;;;;3.77;1.00;;;;;;;0.17;79.03;100962.25;5047528;28;20611;-82
2023/02/26 02:31:18;;;;;;;2.60;1.00;;;;;;;0.13;78.81;100963.00;5055320;28;20681;-81
2023/02/26 02:33:51;;;;;;;2.60;1.00;;;;;;;0.09;79.67;100958.59;5055321;28;20249;-81
2023/02/26 02:36:24;;;;;;;1.83;0.87;;;;;;;0.16;79.40;100954.53;5055625;28;20676;-81
2023/02/26 02:38:55;;;;;;;2.00;0.80;;;;;;;0.14;79.16;100959.63;5055001;28;20237;-82
2023/02/26 02:41:26;;;;;;;2.03;0.93;;;;;;;0.15;78.92;100953.66;5054753;28;20769;-81
2023/02/26 02:43:53;;;;;;;2.07;1.13;;;;;;;0.14;79.00;100961.28;5054869;28;20223;-81
2023/02/26 02:46:26;;;;;;;3.73;1.27;;;;;;;0.13;79.24;100972.41;5054803;28;20205;-82
2023/02/26 02:48:58;;;;;;;4.03;1.13;;;;;;;0.06;79.92;100971.34;5054785;28;20230;-80
2023/02/26 02:51:28;;;;;;;1.97;1.00;;;;;;;0.11;80.07;100968.91;5054449;28;20259;-81
2023/02/26 02:54:01;;;;;;;2.33;1.13;;;;;;;0.09;80.64;100958.59;5053810;28;20226;-79
2023/02/26 02:56:33;;;;;;;4.17;1.10;;;;;;;0.11;80.76;100954.38;5054095;28;20667;-81
2023/02/26 02:59:06;;;;;;;5.30;1.40;;;;;;;0.17;80.77;100951.13;5054424;28;20227;-80
2023/02/26 03:01:37;;;;;;;3.10;1.30;;;;;;;0.14;80.51;100948.44;5054510;28;20835;-82
2023/02/26 03:04:07;;;;;;;5.80;1.30;;;;;;;0.19;79.57;100958.06;5054626;28;20205;-81
2023/02/26 03:06:34;;;;;;;2.30;1.20;;;;;;;0.16;79.72;100965.66;5054768;28;20213;-82
2023/02/26 03:09:03;;;;;;;1.67;1.10;;;;;;;0.16;79.92;100957.97;5055037;28;20255;-84
2023/02/26 03:11:29;;;;;;;3.07;1.20;;;;;;;0.16;80.35;100970.81;5055184;28;20579;-81
2023/02/26 03:13:57;;;;;;;3.57;1.40;;;;;;;0.18;79.59;100971.72;5054768;28;20225;-81
2023/02/26 03:16:36;;;;;;;2.17;1.60;;;;;;;0.18;79.70;100979.44;5055436;28;20201;-81
2023/02/26 03:19:15;;;;;;;2.47;1.33;;;;;;;0.23;80.00;100979.56;5054766;28;20221;-82
2023/02/26 03:21:48;;;;;;;2.27;1.10;;;;;;;0.25;80.11;100982.19;5055021;28;20207;-81
2023/02/26 03:24:22;;;;;;;1.50;1.03;;;;;;;0.26;80.08;100987.38;5054507;28;20201;-82
2023/02/26 03:26:56;;;;;;;5.67;1.10;;;;;;;0.31;80.23;100993.50;5054908;28;20202;-80
2023/02/26 03:29:33;;;;;;;2.07;1.20;;;;;;;0.30;79.72;100996.06;5056644;28;20221;-81
2023/02/26 03:32:05;;;;;;;3.03;1.00;;;;;;;0.30;80.34;101008.88;5058543;28;20279;-81
2023/02/26 03:34:39;;;;;;;6.43;1.20;;;;;;;0.13;80.44;101018.59;5058707;28;20229;-81
2023/02/26 03:37:11;;;;;;;2.20;1.37;;;;;;;0.22;80.59;101006.06;5058894;28;20185;-81
2023/02/26 03:39:41;;;;;;;2.17;1.07;;;;;;;0.20;80.83;101002.59;5022586;28;1040708;-82
2023/02/26 03:42:11;;;;;;;4.20;1.67;;;;;;;0.26;80.41;101001.88;5059079;28;20673;-82
2023/02/26 03:44:44;;;;;;;3.00;1.00;;;;;;;0.31;80.15;101000.34;5059172;28;20206;-82
2023/02/26 03:47:13;;;;;;;3.50;0.83;;;;;;;0.40;79.20;101023.75;5060003;28;20214;-80
2023/02/26 03:49:45;;;;;;;3.87;0.83;;;;;;;0.41;78.97;101048.59;5059066;28;20604;-81
2023/02/26 03:52:13;;;;;;;2.10;1.23;;;;;;;0.37;78.73;101060.47;5058977;28;20224;-81
2023/02/26 03:54:44;;;;;;;1.70;1.10;;;;;;;0.35;79.23;101072.38;5058867;28;20225;-81
2023/02/26 03:57:11;;;;;;;1.83;0.83;;;;;;;0.38;79.15;101077.63;5059324;28;20205;-80
2023/02/26 03:59:37;;;;;;;2.80;1.10;;;;;;;0.41;78.72;101081.97;5058842;28;20602;-81
2023/02/26 04:02:07;;;;;;;2.77;1.00;;;;;;;0.42;79.39;101094.03;5059748;28;20679;-82
2023/02/26 04:04:41;;;;;;;3.13;0.90;;;;;;;0.37;79.29;101091.28;5059008;28;20202;-81
2023/02/26 04:07:10;;;;;;;2.13;1.23;;;;;;;0.39;79.04;101096.47;5059326;28;20205;-81
2023/02/26 04:09:36;;;;;;;1.67;0.87;;;;;;;0.32;79.70;101097.97;5059290;28;20225;-82
2023/02/26 04:12:03;;;;;;;2.70;0.90;;;;;;;0.31;80.00;101096.22;5059590;28;20232;-82
2023/02/26 04:14:30;;;;;;;1.40;1.00;;;;;;;0.35;80.24;101087.78;5059225;28;20248;-80
2023/02/26 04:16:56;;;;;;;2.10;1.40;;;;;;;0.43;79.27;101092.31;5059043;28;20243;-83
2023/02/26 04:19:22;;;;;;;2.67;0.80;;;;;;;0.39;79.14;101110.19;5059142;28;20255;-81
2023/02/26 04:21:49;;;;;;;3.80;1.63;;;;;;;0.39;78.75;101119.59;5059588;28;20205;-82
2023/02/26 04:24:16;;;;;;;3.27;1.10;;;;;;;0.31;79.04;101126.16;5059983;28;20209;-82
2023/02/26 04:26:43;;;;;;;3.17;1.10;;;;;;;0.33;79.17;101129.66;5059826;28;20201;-80
2023/02/26 04:29:09;;;;;;;2.40;1.10;;;;;;;0.32;79.52;101126.22;5059467;28;20221;-82
2023/02/26 04:31:35;;;;;;;2.50;0.67;;;;;;;0.32;79.65;101123.66;5060034;28;20599;-81
2023/02/26 04:34:02;;;;;;;2.40;0.90;;;;;;;0.30;79.62;101135.56;5059636;28;20227;-81
2023/02/26 04:36:29;;;;;;;1.70;0.80;;;;;;;0.22;79.99;101137.00;5059998;28;20205;-81
2023/02/26 04:38:56;;;;;;;2.37;1.20;;;;;;;0.26;79.86;101137.97;5059467;28;20739;-82
2023/02/26 04:41:23;;;;;;;3.13;2.17;;;;;;;0.28;79.99;101141.44;5059754;28;20209;-82
2023/02/26 04:43:50;;;;;;;1.63;1.00;;;;;;;0.25;79.66;101142.22;5059310;28;20272;-82
2023/02/26 04:46:16;;;;;;;4.70;1.17;;;;;;;0.25;80.10;101142.22;5060082;28;20210;-82
2023/02/26 04:48:42;;;;;;;3.70;1.30;;;;;;;0.26;79.51;101143.09;5059476;28;20230;-82
2023/02/26 04:51:09;;;;;;;3.27;1.07;;;;;;;0.22;79.37;101149.84;5059617;28;20232;-82
2023/02/26 04:53:35;;;;;;;2.57;1.10;;;;;;;0.24;78.76;101150.75;5059369;28;20229;-82
2023/02/26 04:56:01;;;;;;;2.30;1.13;;;;;;;0.23;78.31;101163.53;5058890;28;20268;-82
2023/02/26 04:58:29;;;;;;;8.77;1.30;;;;;;;0.15;79.36;101176.97;5058791;28;20255;-82
2023/02/26 05:00:57;;;;;;;2.30;1.10;;;;;;;0.12;79.07;101182.00;5059572;28;20680;-82
2023/02/26 05:03:23;;;;;;;2.70;1.37;;;;;;;0.11;78.65;101182.81;5059167;28;20260;-81
2023/02/26 05:05:49;;;;;;;1.73;0.97;;;;;;;0.12;79.15;101184.59;5059317;28;20202;-81
2023/02/26 05:08:16;;;;;;;7.90;1.10;;;;;;;0.13;79.29;101188.00;5059630;28;20214;-82
2023/02/26 05:10:42;;;;;;;1.60;0.87;;;;;;;0.13;78.74;101200.84;5059937;28;20215;-81
2023/02/26 05:13:08;;;;;;;2.47;0.90;;;;;;;0.12;77.94;101199.97;5058971;28;20210;-82
2023/02/26 05:15:36;;;;;;;2.33;0.83;;;;;;;0.10;78.35;101208.41;5059208;28;20210;-80
2023/02/26 05:18:03;;;;;;;2.07;0.97;;;;;;;0.07;78.83;101216.91;5059739;28;20622;-82
2023/02/26 05:20:29;;;;;;;4.73;1.07;;;;;;;0.03;78.33;101220.16;5059363;28;20379;-80
2023/02/26 05:22:55;;;;;;;2.77;0.80;;;;;;;0.06;78.64;101222.88;5059326;28;20655;-80
2023/02/26 05:25:22;;;;;;;1.10;0.60;;;;;;;0.06;78.46;101212.59;5058914;28;20279;-80
2023/02/26 05:27:48;;;;;;;2.77;0.97;;;;;;;0.08;78.82;101230.59;5057952;28;20206;-81
2023/02/26 05:30:16;;;;;;;2.27;0.90;;;;;;;0.10;77.71;101237.56;5059424;28;20626;-81
2023/02/26 05:32:44;;;;;;;1.20;0.77;;;;;;;0.07;77.62;101251.97;5059388;28;20215;-80
2023/02/26 05:35:11;;;;;;;1.37;0.90;;;;;;;0.03;77.46;101273.22;5059289;28;20225;-79
2023/02/26 05:37:38;;;;;;;2.00;0.90;;;;;;;-0.07;77.48;101290.81;5059461;28;20621;-81
2023/02/26 05:40:08;;;;;;;4.67;0.67;;;;;;;-0.15;77.80;101292.22;5059365;28;20231;-81
2023/02/26 05:42:34;;;;;;;1.20;0.80;;;;;;;-0.13;77.51;101292.28;5059802;28;20205;-80
2023/02/26 05:45:00;;;;;;;2.40;1.10;;;;;;;-0.13;77.19;101294.84;5059483;28;20201;-81
2023/02/26 05:47:26;;;;;;;1.17;0.80;;;;;;;-0.12;77.66;101300.03;5058925;28;20259;-80
2023/02/26 05:49:54;;;;;;;0.90;0.80;;;;;;;-0.10;77.83;101298.41;5059581;28;20611;-81
2023/02/26 05:52:20;;;;;;;1.17;0.80;;;;;;;-0.10;77.63;101315.47;5059386;28;20209;-81
2023/02/26 05:54:47;;;;;;;2.00;1.10;;;;;;;-0.11;76.79;101324.00;5059623;28;20223;-81
2023/02/26 05:57:13;;;;;;;1.90;0.90;;;;;;;-0.06;76.66;101335.31;5059181;28;20206;-82
2023/02/26 05:59:40;;;;;;;3.90;0.80;;;;;;;-0.06;76.69;101338.78;5059258;28;20244;-81
2023/02/26 06:02:06;;;;;;;3.00;1.30;;;;;;;-0.08;76.77;101350.66;5059994;28;20215;-82
2023/02/26 06:04:33;;;;;;;2.47;0.90;;;;;;;-0.07;77.09;101356.66;5058767;28;20202;-81
2023/02/26 06:07:01;;;;;;;2.47;0.70;;;;;;;-0.08;76.43;101366.06;5058772;28;20202;-82
2023/02/26 06:09:27;;;;;;;2.60;0.90;;;;;;;-0.12;76.93;101371.91;5059253;28;20706;-81
2023/02/26 06:11:54;;;;;;;1.07;0.80;;;;;;;-0.08;75.54;101378.91;5059650;28;20210;-82
2023/02/26 06:14:20;;;;;;;3.23;1.10;;;;;;;-0.08;75.50;101399.44;5058922;28;20321;-81
2023/02/26 06:16:46;;;;;;;2.80;1.10;;;;;;;-0.24;76.11;101405.63;5059586;28;20209;-81
2023/02/26 06:19:12;;;;;;;2.13;1.03;;;;;;;-0.29;75.89;101408.81;5059534;28;20225;-81
2023/02/26 06:21:39;;;;;;;3.00;0.90;;;;;;;-0.26;76.32;101408.94;5060026;28;20273;-80
2023/02/26 06:24:07;;;;;;;2.13;0.97;;;;;;;-0.26;76.08;101416.63;5059570;28;20337;-80
2023/02/26 06:26:33;;;;;;;1.13;0.80;;;;;;;-0.30;76.23;101417.31;5059350;28;20232;-82
2023/02/26 06:29:01;;;;;;;1.93;0.80;;;;;;;-0.31;76.13;101423.28;5058972;28;20225;-80
2023/02/26 06:31:27;;;;;;;1.83;1.07;;;;;;;-0.34;76.51;101431.69;5058650;28;20211;-81
2023/02/26 06:33:53;;;;;;;3.07;1.00;;;;;;;-0.39;76.50;101433.22;5059167;28;20283;-79
2023/02/26 06:36:20;;;;;;;2.90;0.80;;;;;;;-0.41;76.55;101429.72;5059768;28;20202;-82
2023/02/26 06:38:46;;;;;;;2.40;1.00;;;;;;;-0.43;76.69;101445.03;5058952;28;20237;-80
2023/02/26 06:41:14;;;;;;;1.60;0.90;;;;;;;-0.43;76.17;101445.03;5059180;28;20201;-82
2023/02/26 06:43:40;;;;;;;1.70;0.80;;;;;;;-0.44;75.89;101451.00;5058881;28;20206;-81
2023/02/26 06:46:07;;;;;;;3.03;1.20;;;;;;;-0.44;75.92;101455.22;5059049;28;20255;-82
2023/02/26 06:48:33;;;;;;;1.53;0.90;;;;;;;-0.41;76.46;101453.66;5059260;28;20230;-81
2023/02/26 06:50:59;;;;;;;2.17;1.00;;;;;;;-0.38;75.90;101457.16;5058733;28;20239;-81
2023/02/26 06:53:26;;;;;;;2.03;0.80;;;;;;;-0.39;75.72;101464.00;5058629;28;20205;-78
2023/02/26 06:55:53;;;;;;;1.47;0.70;;;;;;;-0.42;75.67;101466.41;5058933;28;20774;-81
2023/02/26 06:58:21;;;;;;;1.57;0.73;;;;;;;-0.41;75.91;101476.75;5058461;28;20654;-81
2023/02/26 07:00:47;;;;;;;3.40;0.77;;;;;;;-0.43;75.92;101480.94;5057756;28;20211;-79
2023/02/26 07:03:16;;;;;;;2.80;0.73;;;;;;;-0.46;75.39;101492.75;5057372;28;20207;-80
2023/02/26 07:05:43;;;;;;;1.30;0.60;;;;;;;-0.45;75.96;101499.66;5061382;28;20213;-81
2023/02/26 07:08:10;;;;;;;2.70;1.00;;;;;;;-0.48;75.57;101502.06;5062242;28;20202;-81
2023/02/26 07:10:37;;;;;;;2.40;0.80;;;;;;;-0.47;75.50;101514.97;5061498;28;20245;-81
2023/02/26 07:13:03;;;;;;;1.33;0.70;;;;;;;-0.45;75.53;101521.03;5061340;28;20548;-81
2023/02/26 07:15:31;;;;;;;2.93;0.60;;;;;;;-0.45;75.21;101535.53;5061378;28;20221;-81
2023/02/26 07:17:58;;;;;;;0.60;0.50;;;;;;;-0.48;75.38;101537.97;5062027;28;20232;-81
2023/02/26 07:20:25;;;;;;;1.37;0.73;;;;;;;-0.48;75.61;101543.97;5061402;28;20269;-81
2023/02/26 07:22:52;;;;;;;3.80;0.67;;;;;;;-0.47;75.31;101547.44;5061815;28;20266;-80
2023/02/26 07:25:19;;;;;;;1.00;0.60;;;;;;;-0.44;74.92;101563.84;5060919;28;20201;-81
2023/02/26 07:27:45;;;;;;;1.30;0.57;;;;;;;-0.46;75.34;101577.38;5061538;28;20255;-79
2023/02/26 07:30:13;;;;;;;1.97;0.60;;;;;;;-0.42;74.84;101566.44;5061158;28;20222;-79
2023/02/26 07:32:41;;;;;;;1.17;0.77;;;;;;;-0.43;74.48;101573.25;5060947;28;20208;-81
2023/02/26 07:35:08;;;;;;;1.30;0.53;;;;;;;-0.39;74.64;101587.09;5061631;28;20664;-80
2023/02/26 07:37:34;;;;;;;1.33;0.80;;;;;;;-0.33;74.69;101589.06;5061169;28;20221;-80
2023/02/26 07:40:00;;;;;;;2.07;0.80;;;;;;;-0.30;74.90;101596.88;5060728;28;20239;-81
2023/02/26 07:42:27;;;;;;;1.40;0.90;;;;;;;-0.24;74.63;101604.84;5060822;28;20255;-81
2023/02/26 07:44:53;;;;;;;1.07;0.70;;;;;;;-0.23;73.98;101609.19;5060967;28;20561;-80
2023/02/26 07:47:19;;;;;;;2.33;1.00;;;;;;;-0.19;74.24;101630.72;5061426;28;20205;-80
2023/02/26 07:49:47;;;;;;;1.93;0.77;;;;;;;-0.15;73.77;101635.19;5061165;28;20790;-80
2023/02/26 07:52:13;;;;;;;1.20;0.60;;;;;;;-0.16;73.65;101647.13;5061133;28;20209;-79
2023/02/26 07:54:40;;;;;;;2.60;0.90;;;;;;;-0.16;74.11;101654.81;5061281;28;20290;-81
2023/02/26 07:57:06;;;;;;;1.03;0.80;;;;;;;-0.17;72.70;101665.03;5061388;28;20276;-81
2023/02/26 07:59:33;;;;;;;0.53;0.53;;;;;;;-0.09;73.56;101674.81;5060848;28;20745;-81
2023/02/26 08:01:59;;;;;;;1.07;0.70;;;;;;;-0.07;73.65;101683.47;5061458;28;20733;-80
2023/02/26 08:04:25;;;;;;;1.10;0.80;;;;;;;-0.10;72.91;101691.03;5061857;28;20239;-81
2023/02/26 08:06:53;;;;;;;2.50;0.87;;;;;;;-0.09;72.90;101703.03;5061479;28;20210;-80
2023/02/26 08:09:20;;;;;;;2.03;0.90;;;;;;;-0.06;73.24;101702.28;5062120;28;20251;-82
2023/02/26 08:11:46;;;;;;;0.83;0.60;;;;;;;-0.07;73.43;101705.69;5061956;28;20565;-82
2023/02/26 08:14:13;;;;;;;0.57;0.57;;;;;;;-0.03;73.29;101710.16;5060844;28;20213;-81
2023/02/26 08:16:39;;;;;;;0.73;0.60;;;;;;;0.02;72.81;101729.22;5060760;28;20202;-82
2023/02/26 08:19:06;;;;;;;0.83;0.70;;;;;;;0.10;73.38;101717.59;5060248;28;20226;-80
2023/02/26 08:21:32;;;;;;;1.57;0.67;;;;;;;0.12;72.97;101730.47;5060651;28;20210;-81
2023/02/26 08:24:00;;;;;;;0.67;0.60;;;;;;;0.18;72.32;101729.06;5060366;28;20207;-81
2023/02/26 08:26:27;;;;;;;1.20;0.70;;;;;;;0.20;72.31;101749.69;5060604;28;20319;-81
2023/02/26 08:28:54;;;;;;;2.20;0.67;;;;;;;0.24;72.56;101763.50;5061659;28;20226;-82
2023/02/26 08:31:20;;;;;;;2.00;0.80;;;;;;;0.28;72.63;101761.16;5061686;28;20266;-82
2023/02/26 08:33:47;;;;;;;1.20;0.63;;;;;;;0.33;72.95;101763.94;5061200;28;20205;-81
2023/02/26 08:36:13;;;;;;;1.33;0.60;;;;;;;0.37;72.44;101763.25;5062072;28;20233;-82
2023/02/26 08:38:40;;;;;;;1.07;0.83;;;;;;;0.35;72.09;101786.28;5060296;28;20234;-81
2023/02/26 08:41:08;;;;;;;2.63;0.63;;;;;;;0.34;72.34;101792.25;5059502;28;20672;-82
2023/02/26 08:43:34;;;;;;;1.33;0.70;;;;;;;0.43;72.53;101794.34;5059647;28;20667;-79
2023/02/26 08:46:01;;;;;;;2.33;1.10;;;;;;;0.51;72.28;101799.81;5059622;28;20193;-81
2023/02/26 08:48:28;;;;;;;1.40;0.83;;;;;;;0.58;72.01;101812.13;5059736;28;20671;-81
2023/02/26 08:50:54;;;;;;;3.30;0.90;;;;;;;0.61;71.90;101819.09;5049891;28;20193;-82
2023/02/26 08:53:21;;;;;;;1.83;0.70;;;;;;;0.65;71.79;101820.97;5051661;28;20198;-81
2023/02/26 08:55:48;;;;;;;3.60;0.80;;;;;;;0.66;71.26;101840.75;5050173;28;20243;-82
2023/02/26 08:58:15;;;;;;;2.83;0.80;;;;;;;0.58;70.75;101846.41;5060419;28;20197;-82
2023/02/26 09:00:42;;;;;;;2.40;0.70;;;;;;;0.58;70.46;101872.09;5060030;28;20264;-82
2023/02/26 09:03:08;;;;;;;1.33;0.63;;;;;;;0.62;70.39;101874.81;5059380;28;20210;-80
2023/02/26 09:05:35;;;;;;;0.83;0.70;;;;;;;0.61;70.22;101894.47;5059427;28;20210;-81
2023/02/26 09:08:01;;;;;;;2.70;0.80;;;;;;;0.60;69.86;101892.72;5059970;28;20206;-82
2023/02/26 09:10:28;;;;;;;1.00;0.80;;;;;;;0.61;70.13;101916.72;5059709;28;20227;-82
2023/02/26 09:12:54;;;;;;;0.90;0.60;;;;;;;0.58;69.71;101918.34;5055435;28;20201;-82
2023/02/26 09:15:22;;;;;;;1.87;0.80;;;;;;;0.57;69.61;101931.97;5056160;28;20226;-80
2023/02/26 09:17:50;;;;;;;1.23;0.60;;;;;;;0.56;70.30;101937.94;5055824;28;20255;-81
2023/02/26 09:20:17;;;;;;;3.37;1.03;;;;;;;0.59;70.07;101934.63;5056815;28;20234;-81
2023/02/26 09:22:43;;;;;;;1.47;0.80;;;;;;;0.59;70.09;101930.41;5055846;28;20201;-82
2023/02/26 09:25:10;;;;;;;3.10;0.80;;;;;;;0.66;71.16;101926.41;5056361;28;20206;-80
2023/02/26 09:27:37;;;;;;;2.30;0.80;;;;;;;0.74;70.15;101924.19;5056489;28;20222;-83
2023/02/26 09:30:04;;;;;;;2.87;1.00;;;;;;;0.72;69.56;101931.81;5055862;28;20219;-81
2023/02/26 09:32:32;;;;;;;1.00;0.70;;;;;;;0.77;69.34;101956.06;5057671;28;20206;-83
2023/02/26 09:34:58;;;;;;;1.70;1.00;;;;;;;0.85;71.05;101958.94;5058483;28;20243;-80
2023/02/26 09:37:25;;;;;;;2.13;0.93;;;;;;;0.95;70.07;101917.44;5058035;28;20210;-83
2023/02/26 09:39:51;;;;;;;1.37;0.60;;;;;;;1.04;69.22;101934.06;5056454;28;20234;-82
2023/02/26 09:42:35;;;;;;;0.53;0.43;;;;;;;1.02;67.68;101944.28;5057827;28;20209;-81
2023/02/26 09:45:03;;;;;;;0.70;0.60;;;;;;;0.96;67.87;101980.88;5056350;28;20209;-82
2023/02/26 09:47:39;;;;;;;1.10;0.60;;;;;;;0.98;66.58;102001.53;5056487;28;20672;-80
2023/02/26 09:50:13;;;;;;;2.37;0.77;;;;;;;0.96;67.85;102034.00;5056796;28;20231;-82
2023/02/26 09:52:43;;;;;;;1.17;0.83;;;;;;;1.06;67.01;102030.16;5058913;28;20770;-82
2023/02/26 09:55:15;;;;;;;0.97;0.70;;;;;;;1.07;66.85;102048.25;5058408;28;20648;-81
2023/02/26 09:57:44;;;;;;;0.60;0.43;;;;;;;1.08;66.64;102046.53;5057762;28;20205;-81
2023/02/26 10:00:23;;;;;;;2.43;0.73;;;;;;;1.06;65.29;102073.88;5057260;28;20226;-82
2023/02/26 10:02:59;;;;;;;2.00;0.70;;;;;;;1.09;65.73;102092.00;5060686;28;20296;-82
2023/02/26 10:05:37;;;;;;;1.63;0.77;;;;;;;1.13;65.66;102101.63;5059656;28;20274;-81
2023/02/26 10:08:07;;;;;;;2.30;0.80;;;;;;;1.15;66.68;102113.75;5060855;28;20205;-83
2023/02/26 10:10:45;;;;;;;1.40;0.70;;;;;;;1.28;67.97;102127.19;5059917;28;20248;-82
2023/02/26 10:13:23;;;;;;;2.17;0.73;;;;;;;1.33;65.62;102103.44;5059893;28;20669;-80
2023/02/26 10:15:52;;;;;;;1.03;0.63;;;;;;;1.35;64.82;102124.09;5059638;28;20223;-81
2023/02/26 10:18:24;;;;;;;1.20;0.60;;;;;;;1.32;64.23;102159.94;5060373;28;20372;-82
2023/02/26 10:20:56;;;;;;;4.17;0.80;;;;;;;1.37;65.45;102150.78;5060005;28;20209;-81
2023/02/26 10:23:28;;;;;;;0.90;0.63;;;;;;;1.44;64.72;102160.50;5059592;28;20274;-82
2023/02/26 10:26:04;;;;;;;1.97;0.83;;;;;;;1.49;64.12;102177.06;5060070;28;20206;-81
2023/02/26 10:28:40;;;;;;;1.67;0.60;;;;;;;1.42;64.07;102189.56;5059128;28;20201;-82
2023/02/26 10:31:18;;;;;;;1.27;0.80;;;;;;;1.51;64.56;102208.88;5056869;28;20745;-81
2023/02/26 10:33:53;;;;;;;0.67;0.63;;;;;;;1.56;64.47;102189.38;5057103;28;20737;-81
2023/02/26 10:36:25;;;;;;;3.80;0.60;;;;;;;1.66;62.77;102197.53;5056324;28;20229;-82
2023/02/26 10:38:59;;;;;;;1.33;0.43;;;;;;;1.70;62.32;102226.06;5055127;28;20229;-81
2023/02/26 10:41:30;;;;;;;2.47;0.60;;;;;;;1.73;62.40;102231.34;5055720;28;20205;-81
2023/02/26 10:44:03;;;;;;;1.30;0.67;;;;;;;1.77;62.56;102240.09;5057485;28;20210;-80
2023/02/26 10:46:39;;;;;;;2.53;0.90;;;;;;;1.82;62.41;102263.47;5058206;28;20209;-80
2023/02/26 10:49:33;;;;;;;1.93;0.70;;;;;;;1.73;62.42;102275.13;5057166;28;20278;-80
2023/02/26 10:52:10;;;;;;;1.83;0.93;;;;;;;1.79;62.70;102272.81;5055567;28;20238;-80
2023/02/26 10:54:40;;;;;;;1.33;0.60;;;;;;;1.84;61.70;102282.44;5055609;28;20209;-80
2023/02/26 10:57:14;;;;;;;2.67;0.80;;;;;;;1.79;62.10;102283.13;5055125;28;20238;-81
2023/02/26 10:59:40;;;;;;;2.80;0.70;;;;;;;1.75;62.40;102298.38;5047456;28;20221;-80
2023/02/26 11:02:27;;;;;;;2.00;0.60;;;;;;;1.83;60.92;102284.16;5054776;28;20220;-79
2023/02/26 11:04:54;;;;;;;1.13;0.70;;;;;;;1.93;58.83;102321.53;5054161;28;20569;-80
2023/02/26 11:07:22;;;;;;;1.60;0.60;;;;;;;2.02;58.96;102370.84;5054600;28;20668;-80
2023/02/26 11:09:49;;;;;;;1.08;0.77;;;;;;;2.07;58.87;102391.72;5053402;28;20486;-80
2023/02/26 11:12:18;;;;;;;1.33;0.73;;;;;;;2.18;58.83;102400.78;5055098;28;20201;-80
2023/02/26 11:14:47;;;;;;;0.90;0.70;;;;;;;2.27;59.92;102416.69;5054829;28;20211;-81
2023/02/26 11:17:18;;;;;;;0.73;0.33;;;;;;;2.35;57.31;102415.34;5054419;28;20226;-80
2023/02/26 11:19:52;;;;;;;1.00;0.50;;;;;;;2.39;58.11;102460.22;5055679;28;20227;-80
2023/02/26 11:22:21;;;;;;;1.40;0.60;;;;;;;2.42;56.45;102474.91;5054224;28;20230;-81
2023/02/26 11:24:50;;;;;;;2.40;1.23;;;;;;;2.38;55.33;102513.44;5063272;28;20193;-80
2023/02/26 11:27:19;;;;;;;2.27;0.40;;;;;;;2.32;55.78;102533.78;5063173;28;20199;-81
2023/02/26 11:29:53;;;;;;;1.60;0.67;;;;;;;2.37;56.51;102552.91;5060816;28;20275;-79
2023/02/26 11:32:24;;;;;;;0.67;0.50;;;;;;;2.41;55.30;102551.38;5062397;28;20198;-79
2023/02/26 11:34:51;;;;;;;0.47;0.43;;;;;;;2.41;54.86;102581.41;5062551;28;20637;-78
2023/02/26 11:37:22;;;;;;;0.80;0.43;;;;;;;2.50;55.00;102598.22;5063237;28;20213;-79
2023/02/26 11:39:54;;;;;;;0.53;0.40;;;;;;;2.56;54.03;102607.94;5063017;28;20234;-79
2023/02/26 11:42:21;;;;;;;1.13;0.60;;;;;;;2.58;54.36;102622.69;5060418;28;20201;-79